Time;durP1;ratioP1;P1;durP2;ratioP2;P2;SDS_P1;SDS_P2;PMS_P1;PMS_P2;Temp;Humidity;BMP_temperature;BMP_pressure;BME280_temperature;BME280_humidity;BME280_pressure;Samples;Min_cycle;Max_cycle;Signal;HPM_P1;HPM_P2
2022/03/14 00:02:14;;;;;;;15.88;6.10;;;;;;;1.11;91.00;100368.38;6011661;23;20149;-66
2022/03/14 00:04:40;;;;;;;14.32;5.93;;;;;;;1.05;91.53;100358.88;6011340;23;20403;-67
2022/03/14 00:07:06;;;;;;;15.30;6.60;;;;;;;1.04;91.73;100346.50;6034855;23;20042;-67
2022/03/14 00:09:32;;;;;;;19.08;6.82;;;;;;;1.08;90.84;100358.72;6034844;23;20399;-68
2022/03/14 00:11:58;;;;;;;20.05;7.15;;;;;;;1.07;91.12;100367.66;5987816;23;20030;-67
2022/03/14 00:14:27;;;;;;;17.35;6.50;;;;;;;1.04;92.07;100372.28;6034774;23;20042;-68
2022/03/14 00:16:55;;;;;;;14.60;5.72;;;;;;;1.00;91.47;100360.91;6035431;23;20155;-68
2022/03/14 00:19:21;;;;;;;20.33;6.55;;;;;;;1.02;91.38;100372.31;6011512;23;20051;-66
2022/03/14 00:21:49;;;;;;;17.60;6.30;;;;;;;1.02;91.45;100369.66;6011009;23;20023;-66
2022/03/14 00:24:15;;;;;;;14.88;6.75;;;;;;;0.98;91.15;100362.75;6011801;23;20118;-67
2022/03/14 00:26:41;;;;;;;17.42;6.78;;;;;;;1.04;91.21;100369.59;6011642;23;20052;-68
2022/03/14 00:29:08;;;;;;;15.90;6.22;;;;;;;0.92;91.84;100342.63;6011550;23;20361;-67
2022/03/14 00:31:35;;;;;;;16.58;6.13;;;;;;;1.01;90.94;100367.94;6010945;23;20110;-66
2022/03/14 00:34:01;;;;;;;17.67;7.03;;;;;;;0.96;91.04;100368.16;6011118;23;20038;-68
2022/03/14 00:36:29;;;;;;;15.00;5.95;;;;;;;1.02;90.94;100363.47;6014584;23;20062;-66
2022/03/14 00:38:55;;;;;;;14.95;6.35;;;;;;;0.98;91.16;100362.75;6013764;23;20027;-68
2022/03/14 00:41:22;;;;;;;15.88;6.70;;;;;;;0.98;90.67;100361.91;6034948;23;20027;-67
2022/03/14 00:43:49;;;;;;;15.52;5.95;;;;;;;0.99;90.98;100364.50;6035160;23;20031;-68
2022/03/14 00:46:16;;;;;;;15.45;6.50;;;;;;;0.91;91.04;100345.34;6035021;23;20027;-65
2022/03/14 00:48:43;;;;;;;15.95;6.50;;;;;;;0.96;91.31;100367.31;6011470;23;20453;-68
2022/03/14 00:51:10;;;;;;;14.73;6.07;;;;;;;0.88;90.80;100353.50;6011502;23;20454;-66
2022/03/14 00:53:36;;;;;;;16.10;6.05;;;;;;;0.85;91.01;100353.66;6011552;23;20078;-66
2022/03/14 00:56:02;;;;;;;18.92;6.70;;;;;;;0.92;90.87;100368.41;6010434;23;20311;-65
2022/03/14 00:58:29;;;;;;;16.48;5.88;;;;;;;0.93;91.25;100355.00;6010620;23;20397;-68
2022/03/14 01:00:55;;;;;;;17.85;6.78;;;;;;;0.87;90.17;100354.41;6034651;23;20035;-65
2022/03/14 01:03:21;;;;;;;16.27;5.80;;;;;;;0.92;90.75;100357.75;6035374;23;20460;-68
2022/03/14 01:05:48;;;;;;;16.48;6.72;;;;;;;0.92;90.57;100352.44;6011754;23;20035;-68
2022/03/14 01:08:14;;;;;;;17.40;6.68;;;;;;;0.92;90.49;100349.75;6011473;23;20027;-65
2022/03/14 01:10:40;;;;;;;20.85;6.60;;;;;;;0.96;90.30;100343.34;6011447;23;20038;-66
2022/03/14 01:13:06;;;;;;;17.42;6.53;;;;;;;0.84;90.28;100317.31;6034696;23;20027;-68
2022/03/14 01:15:32;;;;;;;17.52;6.47;;;;;;;1.02;90.02;100345.69;6010396;23;20493;-66
2022/03/14 01:17:59;;;;;;;14.40;6.15;;;;;;;1.02;90.19;100353.69;6034182;23;20023;-65
2022/03/14 01:20:26;;;;;;;14.57;6.00;;;;;;;0.98;90.33;100349.44;6010188;23;20096;-66
2022/03/14 01:22:55;;;;;;;14.10;5.80;;;;;;;1.01;89.55;100346.66;6010439;23;20030;-67
2022/03/14 01:25:24;;;;;;;15.20;5.75;;;;;;;0.96;90.13;100338.03;6010733;23;20033;-69
2022/03/14 01:27:50;;;;;;;17.73;6.93;;;;;;;1.01;89.42;100346.66;6034422;23;20054;-69
2022/03/14 01:30:19;;;;;;;16.42;6.80;;;;;;;1.05;89.34;100348.22;6010091;23;20395;-69
2022/03/14 01:32:46;;;;;;;15.95;6.40;;;;;;;1.07;88.89;100346.38;6056849;23;20056;-67
2022/03/14 01:35:12;;;;;;;15.98;6.50;;;;;;;1.06;89.48;100344.66;6034500;23;20031;-68
2022/03/14 01:37:38;;;;;;;14.70;5.80;;;;;;;1.06;89.64;100363.28;6010651;23;20038;-67
2022/03/14 01:40:09;;;;;;;15.85;5.90;;;;;;;1.02;90.02;100359.00;6011458;23;20089;-67
2022/03/14 01:42:34;;;;;;;;;;;;;;;1.02;90.22;100360.81;5986840;23;20509;-68
2022/03/14 01:45:01;;;;;;;15.55;6.57;;;;;;;0.94;90.67;100354.06;6010358;23;19917;-66
2022/03/14 01:47:28;;;;;;;18.83;6.45;;;;;;;0.93;90.00;100343.50;6011302;23;20043;-63
2022/03/14 01:49:54;;;;;;;16.23;6.32;;;;;;;0.95;90.00;100354.91;6034633;23;20023;-70
2022/03/14 01:52:20;;;;;;;15.50;6.15;;;;;;;0.91;90.08;100345.34;6035827;23;20027;-69
2022/03/14 01:54:47;;;;;;;15.75;6.05;;;;;;;0.97;89.01;100353.06;6010939;23;20023;-70
2022/03/14 01:57:13;;;;;;;15.10;6.28;;;;;;;1.01;89.71;100357.28;6010876;23;20051;-64
2022/03/14 01:59:39;;;;;;;13.18;5.93;;;;;;;1.00;89.55;100366.22;6034389;23;20027;-64
2022/03/14 02:02:15;;;;;;;12.85;5.32;;;;;;;1.03;89.79;100368.75;6012704;23;20041;-63
2022/03/14 02:04:46;;;;;;;17.83;6.28;;;;;;;1.00;90.62;100360.91;5989313;23;20517;-65
2022/03/14 02:07:13;;;;;;;15.00;5.75;;;;;;;1.05;89.46;100369.53;6009238;23;20375;-66
2022/03/14 02:09:39;;;;;;;17.77;6.93;;;;;;;1.02;89.91;100367.00;6032875;23;20469;-69
2022/03/14 02:12:09;;;;;;;14.57;6.20;;;;;;;0.92;89.23;100341.78;6009657;23;20031;-72
2022/03/14 02:14:39;;;;;;;13.93;5.63;;;;;;;1.08;89.21;100364.06;6033538;23;20114;-67
2022/03/14 02:17:13;;;;;;;15.20;5.70;;;;;;;0.90;89.83;100333.00;6009482;23;20055;-67
2022/03/14 02:19:40;;;;;;;14.38;5.65;;;;;;;1.08;89.23;100369.38;6010747;23;20030;-65
2022/03/14 02:22:11;;;;;;;15.68;5.57;;;;;;;1.04;90.19;100358.97;6056792;23;20031;-62
2022/03/14 02:24:38;;;;;;;16.60;6.55;;;;;;;1.07;89.76;100372.97;6035084;23;20031;-68
2022/03/14 02:27:04;;;;;;;14.25;5.53;;;;;;;1.05;89.45;100369.53;6009749;23;20035;-66
2022/03/14 02:29:30;;;;;;;14.27;6.32;;;;;;;1.10;89.74;100372.84;6033159;23;20031;-65
2022/03/14 02:31:56;;;;;;;17.17;6.80;;;;;;;1.02;89.74;100356.34;6033139;23;20505;-66
2022/03/14 02:34:22;;;;;;;14.25;5.82;;;;;;;1.09;89.48;100371.09;6055607;23;20181;-62
2022/03/14 02:36:47;;;;;;;13.77;5.22;;;;;;;1.13;89.61;100378.03;6006701;23;20458;-69
2022/03/14 02:39:14;;;;;;;13.40;5.32;;;;;;;1.16;88.83;100383.19;6055774;23;20411;-65
2022/03/14 02:41:40;;;;;;;15.90;5.78;;;;;;;0.97;89.23;100337.09;6033193;23;20126;-66
2022/03/14 02:44:08;;;;;;;14.77;5.75;;;;;;;1.17;89.35;100368.94;6034733;23;20105;-66
2022/03/14 02:46:38;;;;;;;13.73;5.82;;;;;;;1.16;89.15;100377.00;6011504;23;20034;-61
2022/03/14 02:49:04;;;;;;;;;;;;;;;1.20;88.73;100379.44;6013774;23;20023;-65
2022/03/14 02:51:31;;;;;;;15.80;6.03;;;;;;;1.10;88.59;100372.84;6038473;23;19989;-65
2022/03/14 02:53:57;;;;;;;15.98;6.63;;;;;;;1.10;88.98;100378.16;6012126;23;20369;-68
2022/03/14 02:56:24;;;;;;;15.35;6.13;;;;;;;1.02;88.93;100364.34;5989091;23;20065;-65
2022/03/14 02:58:52;;;;;;;15.88;6.25;;;;;;;1.07;88.64;100380.97;6012335;23;20110;-65
2022/03/14 03:01:18;;;;;;;15.25;6.25;;;;;;;1.04;88.94;100366.94;6059659;23;20019;-66
2022/03/14 03:03:45;;;;;;;13.73;6.50;;;;;;;1.16;89.26;100396.50;6036526;23;20106;-65
2022/03/14 03:06:11;;;;;;;15.55;6.57;;;;;;;1.13;89.21;100378.03;6013338;23;20023;-64
2022/03/14 03:08:37;;;;;;;15.60;6.63;;;;;;;1.12;89.32;100394.91;6059840;23;20126;-64
2022/03/14 03:11:08;;;;;;;17.08;6.10;;;;;;;1.03;89.44;100366.09;6036247;23;20031;-66
2022/03/14 03:13:35;;;;;;;16.60;5.97;;;;;;;1.14;89.54;100390.41;6012322;23;20125;-66
2022/03/14 03:16:01;;;;;;;16.15;6.75;;;;;;;1.14;89.94;100387.72;6060155;23;20110;-65
2022/03/14 03:18:27;;;;;;;15.23;5.90;;;;;;;1.07;90.28;100372.13;6035452;23;20110;-65
2022/03/14 03:20:53;;;;;;;13.77;5.95;;;;;;;1.02;90.21;100369.66;6035864;23;20051;-65
2022/03/14 03:23:19;;;;;;;17.92;6.43;;;;;;;1.13;90.95;100378.03;6036138;23;20353;-65
2022/03/14 03:25:45;;;;;;;15.13;6.18;;;;;;;1.16;90.64;100383.19;6012505;23;20042;-64
2022/03/14 03:28:12;;;;;;;16.38;6.70;;;;;;;1.09;90.44;100376.41;6036613;23;20038;-65
2022/03/14 03:30:38;;;;;;;17.70;6.75;;;;;;;0.96;90.75;100362.84;6012498;23;20019;-65
2022/03/14 03:33:04;;;;;;;15.07;6.10;;;;;;;1.08;89.89;100380.03;6036489;23;20016;-65
2022/03/14 03:35:30;;;;;;;16.90;6.40;;;;;;;1.10;90.27;100388.81;6036347;23;20031;-65
2022/03/14 03:37:56;;;;;;;15.20;5.65;;;;;;;1.13;90.51;100387.78;6036003;23;20407;-66
2022/03/14 03:40:22;;;;;;;14.93;6.05;;;;;;;1.16;90.42;100388.50;6012605;23;20023;-66
2022/03/14 03:42:49;;;;;;;16.27;5.43;;;;;;;1.14;90.30;100390.41;6057167;23;20046;-65
2022/03/14 03:45:14;;;;;;;20.85;7.80;;;;;;;1.10;91.01;100383.50;6035507;23;20458;-65
2022/03/14 03:47:41;;;;;;;16.00;6.18;;;;;;;1.16;90.66;100391.16;6059327;23;20165;-65
2022/03/14 03:50:07;;;;;;;17.13;7.43;;;;;;;1.18;91.25;100388.44;6035293;23;20141;-66
2022/03/14 03:52:33;;;;;;;20.88;7.32;;;;;;;1.16;90.32;100391.16;6011757;23;20366;-65
2022/03/14 03:54:59;;;;;;;14.00;5.97;;;;;;;1.13;90.53;100395.78;5988029;23;20466;-65
2022/03/14 03:57:25;;;;;;;18.00;6.75;;;;;;;1.12;91.05;100402.91;6011282;23;20038;-65
2022/03/14 03:59:51;;;;;;;19.45;7.68;;;;;;;1.19;90.77;100404.34;6035278;23;20055;-65
2022/03/14 04:02:19;;;;;;;17.42;6.90;;;;;;;1.20;90.71;100406.06;6035856;23;20019;-65
2022/03/14 04:04:49;;;;;;;20.25;7.30;;;;;;;1.07;90.60;100378.31;6035017;23;20073;-66
2022/03/14 04:07:18;;;;;;;18.73;7.57;;;;;;;1.20;90.31;100398.06;6059275;23;20204;-66
2022/03/14 04:09:46;;;;;;;20.48;7.97;;;;;;;1.23;90.90;100410.38;6012128;23;20190;-65
2022/03/14 04:12:12;;;;;;;17.25;7.28;;;;;;;1.30;90.13;100409.16;6011416;23;20027;-68
2022/03/14 04:14:38;;;;;;;19.73;7.78;;;;;;;1.27;90.67;100405.78;6058917;23;20043;-65
2022/03/14 04:17:05;;;;;;;18.40;7.35;;;;;;;1.23;90.50;100410.38;6035123;23;20023;-65
2022/03/14 04:19:32;;;;;;;22.23;7.75;;;;;;;1.31;90.70;100407.34;6033007;23;20026;-65
2022/03/14 04:21:58;;;;;;;21.05;8.75;;;;;;;1.23;90.25;100393.53;6040034;23;20094;-65
2022/03/14 04:24:24;;;;;;;21.63;8.43;;;;;;;1.17;90.86;100400.91;6015869;23;20026;-66
2022/03/14 04:26:50;;;;;;;20.55;8.05;;;;;;;1.17;91.06;100405.34;6063097;23;20026;-65
2022/03/14 04:29:17;;;;;;;19.30;8.60;;;;;;;1.31;91.13;100412.69;6063201;23;20039;-65
2022/03/14 04:31:43;;;;;;;21.00;8.63;;;;;;;1.16;91.10;100404.47;5992483;23;20093;-64
2022/03/14 04:34:09;;;;;;;25.92;9.80;;;;;;;1.32;91.20;100419.75;6063881;23;20110;-67
2022/03/14 04:36:35;;;;;;;23.15;9.15;;;;;;;1.23;91.37;100417.50;6062476;23;20027;-65
2022/03/14 04:39:01;;;;;;;20.83;9.30;;;;;;;1.27;91.41;100416.44;6015504;23;20045;-67
2022/03/14 04:41:27;;;;;;;19.23;8.25;;;;;;;1.34;91.54;100428.50;6039390;23;20034;-65
2022/03/14 04:43:53;;;;;;;21.73;10.02;;;;;;;1.28;91.46;100412.81;6040240;23;20035;-65
2022/03/14 04:46:20;;;;;;;22.27;9.90;;;;;;;1.33;91.75;100421.47;6016554;23;20023;-65
2022/03/14 04:48:46;;;;;;;22.15;9.25;;;;;;;1.29;91.91;100414.56;6039988;23;20041;-65
2022/03/14 04:51:12;;;;;;;22.63;10.25;;;;;;;1.28;91.88;100412.81;6066031;23;20127;-65
2022/03/14 04:53:38;;;;;;;27.05;9.77;;;;;;;1.32;92.27;100431.25;6063581;23;20440;-65
2022/03/14 04:56:04;;;;;;;26.83;10.35;;;;;;;1.04;92.19;100383.78;6039203;23;20035;-65
2022/03/14 04:58:32;;;;;;;23.85;10.43;;;;;;;1.25;92.48;100418.31;6015644;23;20030;-65
2022/03/14 05:00:58;;;;;;;25.35;9.93;;;;;;;1.30;92.24;100417.16;6063000;23;20038;-65
2022/03/14 05:03:24;;;;;;;23.35;10.63;;;;;;;1.29;92.31;100417.22;6016025;23;20022;-65
2022/03/14 05:05:50;;;;;;;25.15;11.20;;;;;;;1.42;91.95;100421.00;6039160;23;20021;-65
2022/03/14 05:08:16;;;;;;;22.90;9.88;;;;;;;1.49;91.48;100421.59;6015566;23;20033;-65
2022/03/14 05:10:42;;;;;;;27.75;11.05;;;;;;;1.39;91.67;100405.16;5991480;23;20504;-65
2022/03/14 05:13:08;;;;;;;31.27;12.07;;;;;;;1.53;91.60;100429.34;6015071;23;20046;-65
2022/03/14 05:15:34;;;;;;;30.38;12.05;;;;;;;1.65;91.54;100444.75;6038332;23;20027;-65
2022/03/14 05:18:03;;;;;;;30.42;11.55;;;;;;;1.68;90.90;100433.94;6015140;23;20027;-68
2022/03/14 05:20:29;;;;;;;26.55;11.30;;;;;;;1.71;90.74;100432.91;6062603;23;20029;-65
2022/03/14 05:22:55;;;;;;;23.05;10.95;;;;;;;1.71;90.25;100438.25;6062714;23;20113;-65
2022/03/14 05:25:22;;;;;;;23.85;10.63;;;;;;;1.70;90.60;100431.19;6014870;23;20018;-65
2022/03/14 05:27:49;;;;;;;29.27;12.00;;;;;;;1.71;89.66;100442.72;6015467;23;20433;-65
2022/03/14 05:30:15;;;;;;;28.10;11.02;;;;;;;1.63;90.12;100435.94;6015186;23;20027;-69
2022/03/14 05:32:42;;;;;;;23.63;10.43;;;;;;;1.62;90.28;100433.38;6039100;23;20071;-66
2022/03/14 05:35:11;;;;;;;26.02;11.90;;;;;;;1.77;89.82;100458.41;6038323;23;20097;-65
2022/03/14 05:37:40;;;;;;;25.23;10.65;;;;;;;1.41;90.27;100414.81;6015652;23;20059;-66
2022/03/14 05:40:08;;;;;;;26.30;10.48;;;;;;;1.62;90.34;100444.03;6038810;23;20099;-65
2022/03/14 05:42:33;;;;;;;23.35;10.45;;;;;;;1.57;90.76;100446.94;6015163;23;20069;-66
2022/03/14 05:45:00;;;;;;;23.45;10.32;;;;;;;1.61;89.76;100445.84;6015205;23;20069;-65
2022/03/14 05:47:26;;;;;;;26.90;10.82;;;;;;;1.62;90.02;100449.38;6015578;23;20027;-67
2022/03/14 05:49:51;;;;;;;25.48;11.30;;;;;;;1.50;89.66;100440.19;6062562;23;20338;-65
2022/03/14 05:52:21;;;;;;;28.58;10.68;;;;;;;1.51;89.64;100441.91;6014724;23;20133;-65
2022/03/14 05:54:47;;;;;;;23.73;9.65;;;;;;;1.51;88.71;100425.91;6040169;23;20031;-67
2022/03/14 05:57:14;;;;;;;23.17;9.82;;;;;;;1.49;87.85;100432.25;6062508;23;20033;-65
2022/03/14 05:59:39;;;;;;;23.92;8.77;;;;;;;1.57;86.35;100446.94;6062258;23;20031;-65
2022/03/14 06:02:05;;;;;;;18.38;8.18;;;;;;;1.50;85.93;100437.50;6039167;23;20027;-67
2022/03/14 06:04:31;;;;;;;19.63;7.10;;;;;;;1.66;84.46;100451.81;6015193;23;20033;-67
2022/03/14 06:06:57;;;;;;;19.20;7.30;;;;;;;1.83;83.28;100447.44;6061922;23;20426;-65
2022/03/14 06:09:25;;;;;;;21.35;7.80;;;;;;;1.79;82.81;100445.84;6015109;23;20041;-65
2022/03/14 06:11:52;;;;;;;18.58;7.80;;;;;;;1.95;83.33;100436.16;6039376;23;20019;-65
2022/03/14 06:14:18;;;;;;;20.55;7.78;;;;;;;2.15;81.58;100465.34;6039001;23;20023;-66
2022/03/14 06:16:43;;;;;;;16.85;6.32;;;;;;;2.18;79.69;100465.19;6062430;23;20026;-65
2022/03/14 06:19:09;;;;;;;15.68;6.70;;;;;;;2.33;79.84;100462.69;6015248;23;20342;-65
2022/03/14 06:21:35;;;;;;;14.05;6.30;;;;;;;2.39;77.82;100465.03;6015728;23;20034;-65
2022/03/14 06:24:03;;;;;;;17.15;6.53;;;;;;;2.47;76.50;100462.84;6041287;23;20033;-66
2022/03/14 06:26:29;;;;;;;22.48;6.57;;;;;;;2.57;75.90;100460.56;6064547;23;20109;-66
2022/03/14 06:28:55;;;;;;;18.35;5.70;;;;;;;2.59;73.83;100451.50;6065085;23;20699;-66
2022/03/14 06:31:21;;;;;;;15.48;5.47;;;;;;;2.51;73.10;100464.41;6064483;23;20022;-66
2022/03/14 06:33:49;;;;;;;14.00;5.63;;;;;;;2.59;73.05;100451.50;6017166;23;20169;-65
2022/03/14 06:36:15;;;;;;;14.77;5.13;;;;;;;2.91;71.67;100464.94;6065014;23;20114;-65
2022/03/14 06:38:40;;;;;;;12.35;5.38;;;;;;;2.98;71.90;100466.34;6065156;23;20045;-65
2022/03/14 06:41:07;;;;;;;15.65;5.75;;;;;;;3.00;71.80;100463.59;5993645;23;20593;-65
2022/03/14 06:43:35;;;;;;;13.02;5.65;;;;;;;3.04;71.61;100466.03;6040339;23;20130;-66
2022/03/14 06:46:02;;;;;;;14.77;4.97;;;;;;;3.02;69.11;100462.56;6017382;23;20035;-67
2022/03/14 06:48:28;;;;;;;12.80;4.90;;;;;;;3.13;67.00;100470.84;6041376;23;20074;-66
2022/03/14 06:50:53;;;;;;;9.52;4.10;;;;;;;3.10;65.50;100471.00;6041374;23;20034;-66
2022/03/14 06:53:19;;;;;;;13.07;4.70;;;;;;;2.88;66.84;100489.16;6040949;23;20023;-65
2022/03/14 06:55:45;;;;;;;13.55;4.38;;;;;;;3.12;65.11;100485.16;6040963;23;20026;-65
2022/03/14 06:58:11;;;;;;;14.18;4.65;;;;;;;3.40;63.62;100483.66;6017751;23;20038;-65
2022/03/14 07:00:37;;;;;;;11.30;4.13;;;;;;;3.27;62.10;100471.91;6041148;23;20054;-65
2022/03/14 07:03:03;;;;;;;14.90;4.32;;;;;;;3.11;59.88;100479.91;6066120;23;20552;-65
2022/03/14 07:05:29;;;;;;;9.93;4.10;;;;;;;2.86;60.68;100480.38;6017244;23;20037;-65
2022/03/14 07:07:56;;;;;;;14.73;3.65;;;;;;;3.02;60.92;100499.09;6040890;23;20531;-64
2022/03/14 07:10:23;;;;;;;10.77;3.72;;;;;;;2.97;60.05;100491.34;6041452;23;20098;-67
2022/03/14 07:12:50;;;;;;;9.23;3.38;;;;;;;3.24;59.78;100483.63;6040876;23;20066;-66
2022/03/14 07:15:21;;;;;;;11.95;3.53;;;;;;;3.27;59.86;100461.22;6018843;23;20030;-65
2022/03/14 07:17:50;;;;;;;11.23;3.53;;;;;;;3.33;58.15;100487.63;6042530;23;20022;-65
2022/03/14 07:20:19;;;;;;;11.48;3.35;;;;;;;3.41;58.38;100484.53;6018162;23;20370;-65
2022/03/14 07:22:55;;;;;;;13.18;3.47;;;;;;;3.49;58.16;100488.47;6041532;23;20030;-65
2022/03/14 07:25:27;;;;;;;11.30;3.72;;;;;;;3.44;57.17;100479.88;6065448;23;20107;-65
2022/03/14 07:27:55;;;;;;;9.85;3.25;;;;;;;3.71;55.78;100466.75;6041167;23;20075;-66
2022/03/14 07:30:22;;;;;;;11.55;3.53;;;;;;;3.86;55.49;100465.00;6064200;23;20022;-65
2022/03/14 07:32:48;;;;;;;12.00;3.75;;;;;;;3.75;54.47;100420.16;6040199;23;20023;-66
2022/03/14 07:35:14;;;;;;;9.88;3.42;;;;;;;4.52;52.34;100453.94;6064808;23;20030;-66
2022/03/14 07:37:40;;;;;;;13.00;3.92;;;;;;;5.17;50.35;100472.25;6040631;23;20053;-65
2022/03/14 07:40:08;;;;;;;10.13;2.42;;;;;;;5.31;48.34;100461.53;6041125;23;20030;-65
2022/03/14 07:42:43;;;;;;;7.63;2.58;;;;;;;5.18;48.39;100451.66;6017015;23;20098;-65
2022/03/14 07:45:10;;;;;;;12.75;2.90;;;;;;;5.22;49.40;100474.63;6016384;23;20361;-66
2022/03/14 07:47:36;;;;;;;12.02;3.10;;;;;;;5.95;46.82;100426.97;6064157;23;20031;-66
2022/03/14 07:50:07;;;;;;;9.82;2.42;;;;;;;5.77;45.83;100454.97;6064202;23;20109;-65
2022/03/14 07:52:34;;;;;;;12.30;2.78;;;;;;;5.97;45.33;100481.41;6064213;23;20061;-65
2022/03/14 07:55:00;;;;;;;10.18;3.10;;;;;;;6.65;44.95;100469.63;6039738;23;20031;-66
2022/03/14 07:57:27;;;;;;;10.05;3.28;;;;;;;6.87;45.28;100458.25;6063558;23;20026;-65
2022/03/14 07:59:53;;;;;;;8.23;2.58;;;;;;;7.09;43.97;100471.03;6040037;23;20019;-67
2022/03/14 08:02:20;;;;;;;16.83;3.88;;;;;;;7.17;43.06;100466.00;6016572;23;20415;-67
2022/03/14 08:04:47;;;;;;;12.05;3.28;;;;;;;6.98;43.01;100481.69;6063758;23;20481;-66
2022/03/14 08:07:14;;;;;;;11.35;2.83;;;;;;;7.38;42.49;100481.53;6040459;23;20122;-69
2022/03/14 08:09:39;;;;;;;10.25;3.70;;;;;;;7.07;44.15;100469.44;6017869;23;20041;-66
2022/03/14 08:12:06;;;;;;;9.57;3.67;;;;;;;7.33;43.51;100462.19;6041728;23;20442;-65
2022/03/14 08:14:32;;;;;;;15.38;3.65;;;;;;;8.08;41.29;100472.81;6040458;23;20023;-66
2022/03/14 08:16:58;;;;;;;17.73;3.83;;;;;;;8.36;40.05;100472.44;6016888;23;20050;-65
2022/03/14 08:19:25;;;;;;;11.98;4.75;;;;;;;8.44;41.02;100453.88;6040519;23;20018;-66
2022/03/14 08:21:51;;;;;;;10.43;3.42;;;;;;;8.35;41.37;100478.81;6016473;23;20098;-65
2022/03/14 08:24:17;;;;;;;14.48;3.25;;;;;;;7.75;42.03;100466.25;6063555;23;20027;-65
2022/03/14 08:26:43;;;;;;;10.68;3.17;;;;;;;7.78;42.64;100482.19;6039530;23;20069;-65
2022/03/14 08:29:11;;;;;;;10.75;3.20;;;;;;;8.18;40.85;100461.22;6040242;23;20067;-66
2022/03/14 08:31:37;;;;;;;10.55;2.72;;;;;;;8.71;40.16;100471.63;6039609;23;20051;-67
2022/03/14 08:34:03;;;;;;;8.88;2.70;;;;;;;8.84;39.10;100477.75;6039607;23;20030;-67
2022/03/14 08:36:29;;;;;;;9.07;3.15;;;;;;;8.74;39.65;100471.38;6064933;23;20035;-66
2022/03/14 08:38:56;;;;;;;15.25;3.50;;;;;;;8.49;40.77;100471.56;6040265;23;20339;-66
2022/03/14 08:41:21;;;;;;;10.55;3.40;;;;;;;9.15;38.67;100464.56;6065758;23;20050;-66
2022/03/14 08:43:47;;;;;;;9.20;2.70;;;;;;;8.14;40.18;100467.81;6038901;23;20022;-66
2022/03/14 08:46:16;;;;;;;10.45;2.50;;;;;;;7.84;40.17;100433.28;6040155;23;20027;-66
2022/03/14 08:48:42;;;;;;;8.43;2.65;;;;;;;9.36;38.18;100468.25;6065353;23;20314;-65
2022/03/14 08:51:08;;;;;;;10.75;3.55;;;;;;;10.05;37.26;100464.41;6063090;23;20023;-65
2022/03/14 08:53:34;;;;;;;7.93;2.33;;;;;;;9.80;36.94;100455.66;6016373;23;20034;-65
2022/03/14 08:56:03;;;;;;;8.05;2.83;;;;;;;10.34;36.65;100456.59;6016830;23;20378;-66
2022/03/14 08:58:29;;;;;;;10.07;3.90;;;;;;;11.18;34.29;100427.66;6039829;23;20034;-66
2022/03/14 09:00:59;;;;;;;9.50;2.53;;;;;;;10.60;35.10;100454.38;6039358;23;20117;-66
2022/03/14 09:03:28;;;;;;;10.02;2.80;;;;;;;9.45;35.57;100463.94;6063440;23;20126;-67
2022/03/14 09:05:57;;;;;;;9.27;2.35;;;;;;;10.41;35.38;100443.41;6015683;23;20025;-66
2022/03/14 09:08:24;;;;;;;9.13;2.90;;;;;;;10.27;35.35;100458.09;6040345;23;20019;-66
2022/03/14 09:10:50;;;;;;;9.65;2.78;;;;;;;11.24;32.91;100435.22;6065015;23;20369;-66
2022/03/14 09:13:18;;;;;;;12.95;2.72;;;;;;;10.37;33.99;100459.03;6063545;23;20027;-67
2022/03/14 09:15:44;;;;;;;13.68;3.03;;;;;;;10.74;35.38;100462.16;6040031;23;20018;-67
2022/03/14 09:18:09;;;;;;;13.25;3.42;;;;;;;11.73;34.04;100454.34;6062916;23;20476;-66
2022/03/14 09:20:38;;;;;;;10.18;3.33;;;;;;;12.72;31.19;100439.72;6040037;23;20122;-65
2022/03/14 09:23:08;;;;;;;14.57;3.83;;;;;;;12.44;32.53;100459.59;6063858;23;20022;-66
2022/03/14 09:25:33;;;;;;;9.50;3.75;;;;;;;14.70;28.14;100448.19;6039394;23;20058;-67
2022/03/14 09:27:59;;;;;;;10.63;3.10;;;;;;;14.11;28.65;100446.94;6016354;23;20591;-66
2022/03/14 09:30:26;;;;;;;9.52;3.50;;;;;;;14.73;28.25;100463.34;6040176;23;20040;-67
2022/03/14 09:32:53;;;;;;;9.85;2.85;;;;;;;14.56;28.55;100459.66;6038794;23;20473;-67
2022/03/14 09:35:20;;;;;;;12.10;3.72;;;;;;;14.78;29.05;100446.56;6039136;23;20023;-68
2022/03/14 09:37:46;;;;;;;12.70;2.90;;;;;;;12.91;31.05;100460.53;6038959;23;20018;-66
2022/03/14 09:40:17;;;;;;;7.15;2.40;;;;;;;10.48;33.27;100447.31;6015140;23;20031;-65
2022/03/14 09:42:53;;;;;;;8.10;2.92;;;;;;;10.15;35.22;100468.06;6063162;23;20025;-66
2022/03/14 09:45:20;;;;;;;10.13;3.53;;;;;;;11.93;31.86;100449.84;6038741;23;20086;-67
2022/03/14 09:47:49;;;;;;;7.85;2.67;;;;;;;13.46;29.84;100454.38;6038941;23;20121;-68
2022/03/14 09:50:23;;;;;;;7.90;3.30;;;;;;;14.06;28.18;100445.72;6015146;23;20035;-67
2022/03/14 09:52:50;;;;;;;10.73;3.42;;;;;;;15.11;27.54;100440.31;6062783;23;20102;-67
2022/03/14 09:55:16;;;;;;;8.55;3.33;;;;;;;14.51;26.82;100437.47;6038484;23;20019;-67
2022/03/14 09:57:42;;;;;;;9.50;3.15;;;;;;;15.80;24.98;100441.16;5991993;23;20023;-67
2022/03/14 10:00:13;;;;;;;8.75;2.70;;;;;;;16.62;24.76;100425.75;6062682;23;20053;-67
2022/03/14 10:02:43;;;;;;;12.43;3.08;;;;;;;16.94;24.94;100434.13;6040328;23;20031;-66
2022/03/14 10:05:12;;;;;;;8.48;2.83;;;;;;;15.16;27.51;100437.94;6040411;23;20171;-67
2022/03/14 10:07:40;;;;;;;8.75;3.00;;;;;;;16.24;25.81;100431.88;6062854;23;20456;-67
2022/03/14 10:10:08;;;;;;;8.32;3.15;;;;;;;16.49;24.88;100433.59;6062811;23;20073;-66
2022/03/14 10:12:34;;;;;;;8.65;2.95;;;;;;;16.76;24.80;100442.50;6015586;23;20106;-66
2022/03/14 10:15:01;;;;;;;8.60;2.35;;;;;;;14.49;26.55;100434.03;6038920;23;20406;-66
2022/03/14 10:17:29;;;;;;;10.60;3.20;;;;;;;15.24;25.89;100434.41;6016320;23;20106;-66
2022/03/14 10:20:00;;;;;;;8.50;2.40;;;;;;;14.31;27.09;100441.38;6038524;23;20047;-66
2022/03/14 10:22:34;;;;;;;10.05;2.97;;;;;;;12.42;29.25;100438.03;6038759;23;20110;-66
2022/03/14 10:25:05;;;;;;;10.15;3.35;;;;;;;11.45;30.94;100437.03;6038856;23;20079;-65
2022/03/14 10:27:33;;;;;;;11.38;3.70;;;;;;;11.34;33.12;100443.41;6038413;23;20490;-66
2022/03/14 10:30:03;;;;;;;10.80;3.72;;;;;;;11.44;31.93;100438.84;6038636;23;20030;-66
2022/03/14 10:32:30;;;;;;;10.45;3.60;;;;;;;11.44;31.99;100416.34;6039275;23;20122;-66
2022/03/14 10:35:00;;;;;;;9.52;3.65;;;;;;;12.32;30.77;100439.88;6062519;23;20029;-66
2022/03/14 10:37:28;;;;;;;9.75;3.58;;;;;;;11.98;31.07;100434.03;6038768;23;20019;-66
2022/03/14 10:40:12;;;;;;;12.10;3.80;;;;;;;11.10;31.81;100414.78;6062309;23;20022;-66
2022/03/14 10:42:39;;;;;;;10.32;3.53;;;;;;;10.59;32.84;100425.63;6015052;23;20409;-68
2022/03/14 10:45:13;;;;;;;9.10;3.70;;;;;;;11.57;31.64;100435.91;6038068;23;20459;-66
2022/03/14 10:48:05;;;;;;;12.00;3.75;;;;;;;11.48;31.32;100428.59;6062477;23;20034;-68
2022/03/14 10:50:31;;;;;;;10.73;3.85;;;;;;;12.91;29.30;100429.81;6036506;23;20027;-66
2022/03/14 10:53:04;;;;;;;8.60;3.20;;;;;;;13.52;29.09;100423.88;6039296;23;20116;-65
2022/03/14 10:55:50;;;;;;;11.73;3.92;;;;;;;15.10;27.00;100421.38;6015097;23;20042;-66
2022/03/14 10:58:18;;;;;;;11.25;3.05;;;;;;;14.82;26.54;100426.16;6015497;23;20025;-68
2022/03/14 11:01:04;;;;;;;9.00;2.78;;;;;;;15.10;26.96;100405.94;6062927;23;20114;-67
2022/03/14 11:03:32;;;;;;;11.10;3.42;;;;;;;15.86;24.74;100394.13;6062334;23;20083;-67
2022/03/14 11:06:03;;;;;;;9.07;3.38;;;;;;;15.85;24.42;100410.66;6038517;23;20041;-66
2022/03/14 11:08:31;;;;;;;10.48;2.78;;;;;;;15.66;24.94;100401.75;6016765;23;20027;-67
2022/03/14 11:10:58;;;;;;;9.75;3.20;;;;;;;15.33;25.81;100418.97;6064538;23;20049;-67
2022/03/14 11:13:24;;;;;;;9.10;3.28;;;;;;;15.94;25.88;100414.25;6040796;23;20464;-67
2022/03/14 11:15:50;;;;;;;9.35;3.20;;;;;;;16.23;25.33;100381.03;6041062;23;20063;-67
2022/03/14 11:18:21;;;;;;;13.30;3.03;;;;;;;17.53;24.58;100419.06;6016573;23;20027;-68
2022/03/14 11:20:47;;;;;;;10.07;3.65;;;;;;;17.64;24.17;100411.50;6017225;23;20030;-66
2022/03/14 11:23:14;;;;;;;8.43;2.88;;;;;;;16.50;24.83;100398.97;6016912;23;20378;-69
2022/03/14 11:25:45;;;;;;;7.68;3.00;;;;;;;16.23;24.98;100419.25;6017083;23;20027;-70